Time;durP1;ratioP1;P1;durP2;ratioP2;P2;SDS_P1;SDS_P2;PMS_P1;PMS_P2;Temp;Humidity;BMP_temperature;BMP_pressure;BME280_temperature;BME280_humidity;BME280_pressure;Samples;Min_cycle;Max_cycle;Signal;HPM_P1;HPM_P2
2022/09/16 00:01:53;;;;;;;;;;;;;;;-142.75;100.00;76824.22;4993455;28;19972;-69
2022/09/16 00:04:18;;;;;;;;;;;;;;;-142.75;100.00;76845.88;4993586;28;20406;-69
2022/09/16 00:06:43;;;;;;;;;;;;;;;-142.75;100.00;76861.63;4993243;28;19928;-69
2022/09/16 00:09:08;;;;;;;;;;;;;;;-142.75;100.00;76853.75;4993542;28;19922;-69
2022/09/16 00:11:33;;;;;;;;;;;;;;;-142.75;100.00;76861.63;4993557;28;20403;-69
2022/09/16 00:13:59;;;;;;;;;;;;;;;-142.75;100.00;76869.50;4993386;28;20391;-69
2022/09/16 00:16:25;;;;;;;;;;;;;;;-142.75;100.00;76871.47;4993127;28;19922;-69
2022/09/16 00:18:54;;;;;;;;;;;;;;;-142.75;100.00;76881.31;4993146;28;19918;-69
2022/09/16 00:21:20;;;;;;;;;;;;;;;-142.75;100.00;76881.31;4976192;28;20349;-69
2022/09/16 00:23:45;;;;;;;;;;;;;;;-142.75;100.00;76881.31;4993261;28;20008;-69
2022/09/16 00:26:10;;;;;;;;;;;;;;;-142.75;100.00;76895.09;4993223;28;20431;-69
2022/09/16 00:28:35;;;;;;;;;;;;;;;-142.75;100.00;76885.25;4992835;28;19918;-69
2022/09/16 00:31:01;;;;;;;;;;;;;;;-142.75;100.00;76885.25;4993171;28;19920;-69
2022/09/16 00:33:27;;;;;;;;;;;;;;;-142.75;100.00;76877.38;4993188;28;19996;-69
2022/09/16 00:36:02;;;;;;;;;;;;;;;-142.75;100.00;76885.25;4993064;28;19921;-69
2022/09/16 00:38:27;;;;;;;;;;;;;;;-142.75;100.00;76893.13;4992829;28;19918;-69
2022/09/16 00:40:52;;;;;;;;;;;;;;;-142.75;100.00;76901.00;4993029;28;20008;-68
2022/09/16 00:43:18;;;;;;;;;;;;;;;-142.75;100.00;76897.06;4992932;28;20292;-69
2022/09/16 00:45:48;;;;;;;;;;;;;;;-142.75;100.00;76893.13;4992914;28;19914;-69
2022/09/16 00:48:15;;;;;;;;;;;;;;;-142.75;100.00;76895.09;4992701;28;20455;-69
2022/09/16 00:50:44;;;;;;;;;;;;;;;-142.75;100.00;76881.31;4992932;28;20391;-69
2022/09/16 00:53:13;;;;;;;;;;;;;;;-142.75;100.00;76871.47;4993005;28;20499;-69
2022/09/16 00:55:38;;;;;;;;;;;;;;;-142.75;100.00;76869.50;4975601;28;20295;-69
2022/09/16 00:58:09;;;;;;;;;;;;;;;-142.75;100.00;76867.53;4992513;28;19917;-69
2022/09/16 01:00:34;;;;;;;;;;;;;;;-142.75;100.00;76867.53;4992813;28;19914;-69
2022/09/16 01:02:59;;;;;;;;;;;;;;;-142.75;100.00;76869.50;4992938;28;19924;-68
2022/09/16 01:05:25;;;;;;;;;;;;;;;-142.75;100.00;76861.63;4992827;28;19914;-68
2022/09/16 01:07:52;;;;;;;;;;;;;;;-142.75;100.00;76861.63;4992554;28;20299;-68
2022/09/16 01:10:18;;;;;;;;;;;;;;;-142.75;100.00;76861.63;4992685;28;19914;-68
2022/09/16 01:12:45;;;;;;;;;;;;;;;-142.75;100.00;76869.50;4992923;28;19914;-69
2022/09/16 01:15:11;;;;;;;;;;;;;;;-142.75;100.00;76851.78;4995321;28;20529;-69
2022/09/16 01:17:39;;;;;;;;;;;;;;;-142.75;100.00;76849.81;4996479;28;19921;-69
2022/09/16 01:20:32;;;;;;;;;;;;;;;-142.75;100.00;76851.78;4996688;28;20008;-69
2022/09/16 01:22:57;;;;;;;;;;;;;;;-142.75;100.00;76853.75;4996656;28;19933;-69
2022/09/16 01:26:01;;;;;;;;;;;;;;;-142.75;100.00;76853.75;4996531;28;20298;-69
2022/09/16 01:28:34;;;;;;;;;;;;;;;-142.75;100.00;76897.06;4958363;28;19937;-69
2022/09/16 01:31:18;;;;;;;;;;;;;;;-142.75;100.00;76891.16;4974744;28;20176;-68
2022/09/16 01:34:04;;;;;;;;;;;;;;;-142.75;100.00;76901.00;4988608;28;19977;-69
2022/09/16 01:36:32;;;;;;;;;;;;;;;-142.75;100.00;76910.84;4996565;28;19979;-69
2022/09/16 01:39:07;;;;;;;;;;;;;;;-142.75;100.00;76924.63;4996183;28;19925;-69
2022/09/16 01:41:41;;;;;;;;;;;;;;;-142.75;100.00;76924.63;4978760;28;19914;-69
2022/09/16 01:44:21;;;;;;;;;;;;;;;-142.75;100.00;76936.44;4996231;28;19957;-68
2022/09/16 01:46:48;;;;;;;;;;;;;;;-142.75;100.00;76944.31;4995847;28;20004;-69
2022/09/16 01:49:22;;;;;;;;;;;;;;;-142.75;100.00;76950.22;4996190;28;19913;-69
2022/09/16 01:52:04;;;;;;;;;;;;;;;-142.75;100.00;76944.31;4996069;28;20478;-69
2022/09/16 01:54:29;;;;;;;;;;;;;;;-142.75;100.00;76952.19;4996102;28;19920;-69
2022/09/16 01:57:00;;;;;;;;;;;;;;;-142.75;100.00;76948.25;4995615;28;19913;-68
2022/09/16 01:59:36;;;;;;;;;;;;;;;-142.75;100.00;76952.19;4995912;28;19918;-69
2022/09/16 02:02:10;;;;;;;;;;;;;;;-142.75;100.00;76950.22;4995958;28;19914;-69
2022/09/16 02:04:39;;;;;;;;;;;;;;;-142.75;100.00;76952.19;4995926;28;19955;-69
2022/09/16 02:07:07;;;;;;;;;;;;;;;-142.75;100.00;76948.25;4995510;28;19918;-68
2022/09/16 02:09:33;;;;;;;;;;;;;;;-142.75;100.00;76944.31;4995745;28;19920;-69
2022/09/16 02:12:04;;;;;;;;;;;;;;;-142.75;100.00;76944.31;4995732;28;19918;-69
2022/09/16 02:14:31;;;;;;;;;;;;;;;-142.75;100.00;76936.44;4995751;28;19917;-69
2022/09/16 02:17:00;;;;;;;;;;;;;;;-142.75;100.00;76942.34;4994805;28;19918;-69
2022/09/16 02:19:28;;;;;;;;;;;;;;;-142.75;100.00;76930.53;4995536;28;20364;-69
2022/09/16 02:21:55;;;;;;;;;;;;;;;-142.75;100.00;76938.41;4995633;28;19924;-69
2022/09/16 02:24:21;;;;;;;;;;;;;;;-142.75;100.00;76940.38;4995664;28;20009;-68
2022/09/16 02:26:49;;;;;;;;;;;;;;;-142.75;100.00;76938.41;4995011;28;19918;-69
2022/09/16 02:29:16;;;;;;;;;;;;;;;-142.75;100.00;76944.31;4995401;28;19914;-69
2022/09/16 02:31:43;;;;;;;;;;;;;;;-142.75;100.00;76944.31;4995343;28;19953;-69
2022/09/16 02:34:11;;;;;;;;;;;;;;;-142.75;100.00;76934.47;4995349;28;19914;-69
2022/09/16 02:36:38;;;;;;;;;;;;;;;-142.75;100.00;76930.53;4994933;28;20410;-68
2022/09/16 02:39:07;;;;;;;;;;;;;;;-142.75;100.00;76936.44;4995228;28;20368;-69
2022/09/16 02:41:33;;;;;;;;;;;;;;;-142.75;100.00;76942.34;4995176;28;19914;-69
2022/09/16 02:43:58;;;;;;;;;;;;;;;-142.75;100.00;76940.38;4995153;28;19921;-69
2022/09/16 02:46:28;;;;;;;;;;;;;;;-142.75;100.00;76944.31;4994971;28;20392;-69
2022/09/16 02:48:53;;;;;;;;;;;;;;;-142.75;100.00;76934.47;4977407;28;20470;-69
2022/09/16 02:51:27;;;;;;;;;;;;;;;-142.75;100.00;76930.53;4995079;28;19974;-69
2022/09/16 02:54:10;;;;;;;;;;;;;;;-142.75;100.00;76934.47;4995010;28;19914;-69
2022/09/16 02:56:38;;;;;;;;;;;;;;;-142.75;100.00;76924.63;4994556;28;19921;-69
2022/09/16 02:59:04;;;;;;;;;;;;;;;-142.75;100.00;76924.63;4994842;28;19973;-69
2022/09/16 03:01:32;;;;;;;;;;;;;;;-142.75;100.00;76916.75;4994825;28;20403;-69
2022/09/16 03:03:57;;;;;;;;;;;;;;;-142.75;100.00;76916.75;4994822;28;19914;-69
2022/09/16 03:06:24;;;;;;;;;;;;;;;-142.75;100.00;76934.47;4994639;28;19968;-69
2022/09/16 03:08:50;;;;;;;;;;;;;;;-142.75;100.00;76940.38;4977026;28;19921;-69
2022/09/16 03:11:18;;;;;;;;;;;;;;;-142.75;100.00;76944.31;4994516;28;19913;-69
2022/09/16 03:13:53;;;;;;;;;;;;;;;-142.75;100.00;76940.38;4994599;28;19914;-69
2022/09/16 03:16:25;;;;;;;;;;;;;;;-142.75;100.00;76954.16;4994362;28;19956;-69
2022/09/16 03:18:53;;;;;;;;;;;;;;;-142.75;100.00;76942.34;4994359;28;20380;-69
2022/09/16 03:21:25;;;;;;;;;;;;;;;-142.75;100.00;76950.22;4994466;28;19967;-69
2022/09/16 03:23:58;;;;;;;;;;;;;;;-142.75;100.00;76946.28;4994424;28;20311;-69
2022/09/16 03:26:35;;;;;;;;;;;;;;;-142.75;100.00;76950.22;4976695;28;19956;-69
2022/09/16 03:29:16;;;;;;;;;;;;;;;-142.75;100.00;76948.25;4994351;28;19914;-69
2022/09/16 03:31:42;;;;;;;;;;;;;;;-142.75;100.00;76950.22;4994254;28;19921;-69
2022/09/16 03:34:16;;;;;;;;;;;;;;;-142.75;100.00;76948.25;4994135;28;19914;-69
2022/09/16 03:36:44;;;;;;;;;;;;;;;-142.75;100.00;76942.34;4993166;28;20061;-69
2022/09/16 03:39:10;;;;;;;;;;;;;;;-142.75;100.00;76948.25;4994082;28;20028;-69
2022/09/16 03:41:36;;;;;;;;;;;;;;;-142.75;100.00;76950.22;4976587;28;20004;-68
2022/09/16 03:44:01;;;;;;;;;;;;;;;-142.75;100.00;76956.13;4976614;28;19914;-69
2022/09/16 03:46:27;;;;;;;;;;;;;;;-142.75;100.00;76946.28;4993805;28;19914;-69
2022/09/16 03:48:53;;;;;;;;;;;;;;;-142.75;100.00;76942.34;4976305;28;19918;-69
2022/09/16 03:51:18;;;;;;;;;;;;;;;-142.75;100.00;76950.22;4976438;28;19914;-69
2022/09/16 03:53:43;;;;;;;;;;;;;;;-142.75;100.00;76956.13;4993853;28;19937;-69
2022/09/16 03:56:08;;;;;;;;;;;;;;;-142.75;100.00;76969.91;4993727;28;19961;-69
2022/09/16 03:58:34;;;;;;;;;;;;;;;-142.75;100.00;76969.91;4993443;28;20315;-69
2022/09/16 04:01:00;;;;;;;;;;;;;;;-142.75;100.00;76960.06;4993718;28;19917;-69
2022/09/16 04:03:25;;;;;;;;;;;;;;;-142.75;100.00;76967.94;4976215;28;19936;-69
2022/09/16 04:05:53;;;;;;;;;;;;;;;-142.75;100.00;76981.72;4993541;28;19913;-69
2022/09/16 04:08:19;;;;;;;;;;;;;;;-142.75;100.00;76979.75;4993430;28;19933;-69
2022/09/16 04:10:57;;;;;;;;;;;;;;;-142.75;100.00;76977.78;4993554;28;19963;-68
2022/09/16 04:13:23;;;;;;;;;;;;;;;-142.75;100.00;76967.94;4993544;28;20295;-69
2022/09/16 04:15:48;;;;;;;;;;;;;;;-142.75;100.00;76962.03;5010935;22;19920;-67
2022/09/16 04:18:13;;;;;;;;;;;;;;;-142.75;100.00;76952.19;5028318;28;19932;-67
2022/09/16 04:20:38;;;;;;;;;;;;;;;-142.75;100.00;76950.22;5031690;28;20295;-68
2022/09/16 04:23:04;;;;;;;;;;;;;;;-142.75;100.00;76936.44;5032726;28;19917;-68
2022/09/16 04:25:29;;;;;;;;;;;;;;;-142.75;100.00;76938.41;5032599;28;19913;-67
2022/09/16 04:27:54;;;;;;;;;;;;;;;-142.75;100.00;76952.19;5032113;28;20019;-68
2022/09/16 04:30:19;;;;;;;;;;;;;;;-142.75;100.00;76940.38;5032431;28;19913;-68
2022/09/16 04:32:44;;;;;;;;;;;;;;;-142.75;100.00;76928.56;5031174;28;19913;-68
2022/09/16 04:35:10;;;;;;;;;;;;;;;-142.75;100.00;76928.56;5032489;28;20298;-68
2022/09/16 04:37:35;;;;;;;;;;;;;;;-142.75;100.00;76932.50;5032166;28;19917;-67
2022/09/16 04:40:00;;;;;;;;;;;;;;;-142.75;100.00;76936.44;5032361;28;20382;-68
2022/09/16 04:42:26;;;;;;;;;;;;;;;-142.75;100.00;76920.69;5031155;28;20275;-68
2022/09/16 04:44:51;;;;;;;;;;;;;;;-142.75;100.00;76912.81;5032334;28;19913;-68
2022/09/16 04:47:16;;;;;;;;;;;;;;;-142.75;100.00;76908.88;5031946;28;20298;-68
2022/09/16 04:49:41;;;;;;;;;;;;;;;-142.75;100.00;76916.75;5031465;28;19922;-66
2022/09/16 04:52:06;;;;;;;;;;;;;;;-142.75;100.00;76918.72;5032305;28;19921;-68
2022/09/16 04:54:31;;;;;;;;;;;;;;;-142.75;100.00;76920.69;5030963;28;19920;-68
2022/09/16 04:56:57;;;;;;;;;;;;;;;-142.75;100.00;76932.50;5030680;28;19998;-68
2022/09/16 04:59:22;;;;;;;;;;;;;;;-142.75;100.00;76940.38;5032133;28;19917;-68
2022/09/16 05:01:47;;;;;;;;;;;;;;;-142.75;100.00;76944.31;5032175;28;20387;-68
2022/09/16 05:04:12;;;;;;;;;;;;;;;-142.75;100.00;76948.25;5032182;28;19917;-68
2022/09/16 05:06:39;;;;;;;;;;;;;;;-142.75;100.00;76938.41;5031822;28;19913;-67
2022/09/16 05:09:05;;;;;;;;;;;;;;;-142.75;100.00;76942.34;5032077;28;19956;-68
2022/09/16 05:11:32;;;;;;;;;;;;;;;-142.75;100.00;76940.38;5030861;28;19953;-68
2022/09/16 05:13:58;;;;;;;;;;;;;;;-142.75;100.00;76930.53;5030810;28;19913;-68
2022/09/16 05:16:23;;;;;;;;;;;;;;;-142.75;100.00;76944.31;5030564;28;20291;-68
2022/09/16 05:18:50;;;;;;;;;;;;;;;-142.75;100.00;76936.44;5030530;28;20286;-68
2022/09/16 05:21:19;;;;;;;;;;;;;;;-142.75;100.00;76932.50;5030756;28;19948;-68
2022/09/16 05:23:44;;;;;;;;;;;;;;;-142.75;100.00;76928.56;5031965;28;19932;-68
2022/09/16 05:26:11;;;;;;;;;;;;;;;-142.75;100.00;76936.44;5031837;28;20012;-68
2022/09/16 05:28:37;;;;;;;;;;;;;;;-142.75;100.00;76928.56;5031578;28;19913;-68
2022/09/16 05:31:11;;;;;;;;;;;;;;;-142.75;100.00;76936.44;5031935;28;19914;-68
2022/09/16 05:33:37;;;;;;;;;;;;;;;-142.75;100.00;76936.44;5031912;28;19913;-68
2022/09/16 05:36:06;;;;;;;;;;;;;;;-142.75;100.00;76934.47;5031906;28;19967;-68
2022/09/16 05:38:32;;;;;;;;;;;;;;;-142.75;100.00;76936.44;5030136;28;19924;-67
2022/09/16 05:40:57;;;;;;;;;;;;;;;-142.75;100.00;76938.41;5031896;28;19914;-68
2022/09/16 05:43:23;;;;;;;;;;;;;;;-142.75;100.00;76934.47;5030489;28;19913;-68
2022/09/16 05:45:51;;;;;;;;;;;;;;;-142.75;100.00;76938.41;5031753;28;19920;-68
2022/09/16 05:48:16;;;;;;;;;;;;;;;-142.75;100.00;76940.38;5031536;28;20404;-68
2022/09/16 05:50:49;;;;;;;;;;;;;;;-142.75;100.00;76924.63;5031823;28;19913;-68
2022/09/16 05:53:14;;;;;;;;;;;;;;;-142.75;100.00;76918.72;5030439;28;19917;-68
2022/09/16 05:55:39;;;;;;;;;;;;;;;-142.75;100.00;76893.13;5031638;28;19913;-68
2022/09/16 05:58:04;;;;;;;;;;;;;;;-142.75;100.00;76883.28;5031368;28;19921;-69
2022/09/16 06:00:29;;;;;;;;;;;;;;;-142.75;100.00;76869.50;5033179;28;19935;-68
2022/09/16 06:02:55;;;;;;;;;;;;;;;-142.75;100.00;76849.81;5035267;28;19928;-68
2022/09/16 06:05:20;;;;;;;;;;;;;;;-142.75;100.00;76853.75;5035303;28;19913;-68
2022/09/16 06:07:46;;;;;;;;;;;;;;;-142.75;100.00;76849.81;5033539;28;19913;-68
2022/09/16 06:10:11;;;;;;;;;;;;;;;-142.75;100.00;76847.84;5035170;28;19913;-68
2022/09/16 06:12:36;;;;;;;;;;;;;;;-142.75;100.00;76851.78;5033834;28;20346;-68
2022/09/16 06:15:02;;;;;;;;;;;;;;;-142.75;100.00;76865.56;5035104;28;19949;-68
2022/09/16 06:17:27;;;;;;;;;;;;;;;-142.75;100.00;76883.28;5033382;28;19921;-68
2022/09/16 06:19:52;;;;;;;;;;;;;;;-142.75;100.00;76916.75;5034938;28;19921;-68
2022/09/16 06:22:17;;;;;;;;;;;;;;;-142.75;100.00;76952.19;5033684;28;19913;-68
2022/09/16 06:24:42;;;;;;;;;;;;;;;-142.75;100.00;76973.84;5034924;28;19920;-68
2022/09/16 06:27:08;;;;;;;;;;;;;;;-142.75;100.00;77013.22;5034472;28;19967;-68
2022/09/16 06:29:33;;;;;;;;;;;;;;;-142.75;100.00;77001.41;5034827;28;19917;-68
2022/09/16 06:31:58;;;;;;;;;;;;;;;-142.75;100.00;77005.34;5034978;28;19988;-68
2022/09/16 06:34:23;;;;;;;;;;;;;;;-142.75;100.00;77011.25;5034741;28;19917;-68
2022/09/16 06:36:49;;;;;;;;;;;;;;;-142.75;100.00;77028.97;5034305;28;20334;-68
2022/09/16 06:39:14;;;;;;;;;;;;;;;-142.75;100.00;77034.88;5034566;28;19921;-69
2022/09/16 06:41:40;;;;;;;;;;;;;;;-142.75;100.00;77028.97;5034524;28;19921;-68
2022/09/16 06:44:05;;;;;;;;;;;;;;;-142.75;100.00;77028.97;5033273;28;20367;-68
2022/09/16 06:46:30;;;;;;;;;;;;;;;-142.75;100.00;77032.91;5034333;28;19999;-67
2022/09/16 06:48:56;;;;;;;;;;;;;;;-142.75;100.00;77044.72;5034338;28;19917;-68
2022/09/16 06:51:23;;;;;;;;;;;;;;;-142.75;100.00;77019.13;5034473;28;20306;-67
2022/09/16 06:53:49;;;;;;;;;;;;;;;-142.75;100.00;77009.28;5008847;28;20391;-67
2022/09/16 06:56:16;;;;;;;;;;;;;;;-142.75;100.00;76969.91;5003207;28;19975;-66
2022/09/16 06:58:43;;;;;;;;;;;;;;;-142.75;100.00;76936.44;5003786;28;20269;-67
2022/09/16 07:01:12;;;;;;;;;;;;;;;-142.75;100.00;76899.03;5005171;28;20332;-66
2022/09/16 07:03:38;;;;;;;;;;;;;;;-142.75;100.00;76851.78;5012021;28;20036;-68
2022/09/16 07:06:03;;;;;;;;;;;;;;;-142.75;100.00;76786.84;5014157;28;19914;-67
2022/09/16 07:08:30;;;;;;;;;;;;;;;-142.75;100.00;76753.38;5014093;28;20406;-68
2022/09/16 07:10:59;;;;;;;;;;;;;;;-142.75;100.00;76710.06;5012552;28;19993;-68
2022/09/16 07:13:25;;;;;;;;;;;;;;;-142.75;100.00;76676.59;5013347;28;19921;-65
2022/09/16 07:15:50;;;;;;;;;;;;;;;-142.75;100.00;76656.91;5006554;28;19936;-68
2022/09/16 07:18:15;;;;;;;;;;;;;;;-142.75;100.00;76627.38;5012953;28;19948;-65
2022/09/16 07:20:40;;;;;;;;;;;;;;;-142.75;100.00;76609.66;5016149;28;19920;-68
2022/09/16 07:23:06;;;;;;;;;;;;;;;-142.75;100.00;76572.25;5014083;28;19917;-68
2022/09/16 07:25:31;;;;;;;;;;;;;;;-142.75;100.00;76546.66;5012312;28;19921;-68
2022/09/16 07:27:56;;;;;;;;;;;;;;;-142.75;100.00;76519.13;5012375;28;19914;-67
2022/09/16 07:30:21;;;;;;;;;;;;;;;-142.75;100.00;76471.88;5019431;28;20390;-68
2022/09/16 07:32:47;;;;;;;;;;;;;;;-142.75;100.00;76485.66;5012497;28;20307;-68
2022/09/16 07:35:12;;;;;;;;;;;;;;;-142.75;100.00;76473.84;5027357;28;20295;-68
2022/09/16 07:37:37;;;;;;;;;;;;;;;-142.75;100.00;76511.25;5009448;28;20015;-66
2022/09/16 07:40:03;;;;;;;;;;;;;;;-142.75;100.00;76562.41;5014343;28;19971;-67
2022/09/16 07:42:28;;;;;;;;;;;;;;;-142.75;100.00;76580.13;5012869;28;19913;-67
2022/09/16 07:44:54;;;;;;;;;;;;;;;-142.75;100.00;76609.66;5009022;28;19918;-68
2022/09/16 07:47:19;;;;;;;;;;;;;;;-142.75;100.00;76641.16;5013103;28;19918;-68
2022/09/16 07:49:44;;;;;;;;;;;;;;;-142.75;100.00;76658.88;5010864;28;20482;-68
2022/09/16 07:52:09;;;;;;;;;;;;;;;-142.75;100.00;76682.50;5011305;28;20332;-68
2022/09/16 07:54:34;;;;;;;;;;;;;;;-142.75;100.00;76712.03;5003711;28;19914;-69
2022/09/16 07:57:00;;;;;;;;;;;;;;;-142.75;100.00;76739.59;4998189;28;20406;-67
2022/09/16 07:59:25;;;;;;;;;;;;;;;-142.75;100.00;76735.66;4993742;28;19918;-67
2022/09/16 08:01:50;;;;;;;;;;;;;;;-142.75;100.00;76747.47;4992509;28;19918;-67
2022/09/16 08:04:16;;;;;;;;;;;;;;;-142.75;100.00;76743.53;4993601;28;19914;-68
2022/09/16 08:06:41;;;;;;;;;;;;;;;-142.75;100.00;76733.69;4993351;28;19920;-68
2022/09/16 08:09:07;;;;;;;;;;;;;;;-142.75;100.00;76715.97;4992199;28;19997;-66
2022/09/16 08:11:32;;;;;;;;;;;;;;;-142.75;100.00;76714.00;4992366;28;19914;-68
2022/09/16 08:13:58;;;;;;;;;;;;;;;-142.75;100.00;76649.03;4993861;28;19914;-67
2022/09/16 08:16:24;;;;;;;;;;;;;;;-142.75;100.00;76629.34;4993347;28;19917;-66
2022/09/16 08:18:50;;;;;;;;;;;;;;;-142.75;100.00;76562.41;5008433;28;19918;-68
2022/09/16 08:21:19;;;;;;;;;;;;;;;-142.75;100.00;76487.63;4993412;28;20299;-68
2022/09/16 08:23:45;;;;;;;;;;;;;;;-142.75;100.00;76446.28;4992993;28;19918;-68
2022/09/16 08:26:12;;;;;;;;;;;;;;;-142.75;100.00;76416.75;4993427;28;20394;-68
2022/09/16 08:28:38;;;;;;;;;;;;;;;-142.75;100.00;76428.56;4992996;28;20013;-68
2022/09/16 08:31:03;;;;;;;;;;;;;;;-142.75;100.00;76485.66;4993237;28;20005;-68
2022/09/16 08:33:29;;;;;;;;;;;;;;;-142.75;100.00;76528.97;4993247;28;20367;-68
2022/09/16 08:36:04;;;;;;;;;;;;;;;-142.75;100.00;76566.34;4993169;28;19917;-67
2022/09/16 08:38:30;;;;;;;;;;;;;;;-142.75;100.00;76599.81;4992643;28;20012;-68
2022/09/16 08:41:02;;;;;;;;;;;;;;;-142.75;100.00;76645.09;4993160;28;19960;-68
2022/09/16 08:43:35;;;;;;;;;;;;;;;-142.75;100.00;76674.63;4993075;28;19914;-68
2022/09/16 08:46:00;;;;;;;;;;;;;;;-142.75;100.00;76714.00;4993118;28;19914;-68
2022/09/16 08:48:43;;;;;;;;;;;;;;;-142.75;100.00;76719.91;4992747;28;20016;-68
2022/09/16 08:51:13;;;;;;;;;;;;;;;-142.75;100.00;76719.91;4993060;28;19937;-68
2022/09/16 08:53:51;;;;;;;;;;;;;;;-142.75;100.00;76727.78;4992969;28;20281;-68
2022/09/16 08:56:19;;;;;;;;;;;;;;;-142.75;100.00;76737.63;4992928;28;19968;-68
2022/09/16 08:58:45;;;;;;;;;;;;;;;-142.75;100.00;76731.72;4992554;28;19921;-68
2022/09/16 09:01:17;;;;;;;;;;;;;;;-142.75;100.00;76715.97;4992816;28;19913;-68
2022/09/16 09:03:44;;;;;;;;;;;;;;;-142.75;100.00;76684.47;4992802;28;20407;-68
2022/09/16 09:06:13;;;;;;;;;;;;;;;-142.75;100.00;76676.59;4991486;28;19914;-67
2022/09/16 09:08:56;;;;;;;;;;;;;;;-142.75;100.00;76609.66;4992309;28;19949;-68
2022/09/16 09:11:27;;;;;;;;;;;;;;;-142.75;100.00;76637.22;4992730;28;20020;-68
2022/09/16 09:14:03;;;;;;;;;;;;;;;-142.75;100.00;76666.75;4992701;28;19918;-66
2022/09/16 09:16:43;;;;;;;;;;;;;;;-142.75;100.00;76700.22;4992496;28;19917;-68
2022/09/16 09:19:27;;;;;;;;;;;;;;;-142.75;100.00;76723.84;4992715;28;19925;-68
2022/09/16 09:22:04;;;;;;;;;;;;;;;-142.75;100.00;76755.34;4992646;28;19921;-68
2022/09/16 09:24:48;;;;;;;;;;;;;;;-142.75;100.00;76741.56;5009596;28;20288;-68
2022/09/16 09:27:15;;;;;;;;;;;;;;;-142.75;100.00;76739.59;5010627;28;19913;-68
2022/09/16 09:29:40;;;;;;;;;;;;;;;-142.75;100.00;76735.66;5012325;28;19941;-68
2022/09/16 09:32:14;;;;;;;;;;;;;;;-142.75;100.00;76719.91;5012120;28;19914;-69
2022/09/16 09:34:52;;;;;;;;;;;;;;;-142.75;100.00;76704.16;5012338;28;19981;-68
2022/09/16 09:37:35;;;;;;;;;;;;;;;-142.75;100.00;76668.72;5015714;28;19979;-68
2022/09/16 09:40:19;;;;;;;;;;;;;;;-142.75;100.00;76664.78;5014704;28;19917;-68
2022/09/16 09:43:04;;;;;;;;;;;;;;;-142.75;100.00;76690.38;5015857;28;19921;-68
2022/09/16 09:45:35;;;;;;;;;;;;;;;-142.75;100.00;76719.91;5016061;28;19914;-68
2022/09/16 09:48:12;;;;;;;;;;;;;;;-142.75;100.00;76755.34;5014251;28;19929;-68
2022/09/16 09:50:44;;;;;;;;;;;;;;;-142.75;100.00;76786.84;5015835;28;19914;-68
2022/09/16 09:53:10;;;;;;;;;;;;;;;-142.75;100.00;76796.69;5015749;28;20007;-68
2022/09/16 09:55:35;;;;;;;;;;;;;;;-142.75;100.00;76806.50;5015636;28;20007;-68
2022/09/16 09:58:04;;;;;;;;;;;;;;;-142.75;100.00;76834.06;5015447;28;19921;-68
2022/09/16 10:00:30;;;;;;;;;;;;;;;-142.75;100.00;76822.25;5015744;28;19918;-67
2022/09/16 10:03:02;;;;;;;;;;;;;;;-142.75;100.00;76822.25;5015443;28;19920;-66
2022/09/16 10:05:28;;;;;;;;;;;;;;;-142.75;100.00;76826.19;5030876;28;20321;-68
2022/09/16 10:07:59;;;;;;;;;;;;;;;-142.75;100.00;76777.00;5011841;28;20016;-66
2022/09/16 10:10:25;;;;;;;;;;;;;;;-142.75;100.00;76674.63;5004196;28;19954;-68
2022/09/16 10:12:51;;;;;;;;;;;;;;;-142.75;100.00;76619.50;5005658;28;19913;-68
2022/09/16 10:15:20;;;;;;;;;;;;;;;-142.75;100.00;76566.34;5006787;28;19918;-66
2022/09/16 10:17:50;;;;;;;;;;;;;;;-142.75;100.00;76456.13;5016425;28;19917;-68
2022/09/16 10:20:25;;;;;;;;;;;;;;;-142.75;100.00;76416.75;5028904;22;19929;-69
2022/09/16 10:22:57;;;;;;;;;;;;;;;-142.75;100.00;76450.22;5010405;28;19932;-68
2022/09/16 10:25:24;;;;;;;;;;;;;;;-142.75;100.00;76471.88;5008630;28;20481;-66
2022/09/16 10:28:00;;;;;;;;;;;;;;;-142.75;100.00;76534.84;5029607;28;19940;-67
2022/09/16 10:30:32;;;;;;;;;;;;;;;-142.75;100.00;76613.59;5014816;28;19941;-69
2022/09/16 10:32:57;;;;;;;;;;;;;;;-142.75;100.00;76605.72;5013733;28;19921;-68
2022/09/16 10:35:24;;;;;;;;;;;;;;;-142.75;100.00;76641.16;5014845;28;19917;-68
2022/09/16 10:38:00;;;;;;;;;;;;;;;-142.75;100.00;76654.94;5014847;28;19921;-68
2022/09/16 10:40:25;;;;;;;;;;;;;;;-142.75;100.00;76670.69;5013625;28;19913;-68
2022/09/16 10:42:52;;;;;;;;;;;;;;;-142.75;100.00;76680.53;5015008;28;20016;-68
2022/09/16 10:45:17;;;;;;;;;;;;;;;-142.75;100.00;76696.28;5014350;28;19918;-69
2022/09/16 10:47:47;;;;;;;;;;;;;;;-142.75;100.00;76668.72;5013936;28;19980;-69
2022/09/16 10:50:17;;;;;;;;;;;;;;;-142.75;100.00;76554.53;5014203;28;21371;-68
2022/09/16 10:52:43;;;;;;;;;;;;;;;-142.75;100.00;76485.66;5014669;28;19924;-68
2022/09/16 10:55:18;;;;;;;;;;;;;;;-142.75;100.00;76452.19;5013340;28;20458;-68
2022/09/16 10:57:43;;;;;;;;;;;;;;;-142.75;100.00;76369.50;5013836;28;19917;-68
2022/09/16 11:00:20;;;;;;;;;;;;;;;-142.75;100.00;76302.59;5014401;28;19925;-68
2022/09/16 11:02:48;;;;;;;;;;;;;;;-142.75;100.00;76210.06;5013731;28;20012;-68
2022/09/16 11:05:13;;;;;;;;;;;;;;;-142.75;100.00;76149.06;5014402;28;20012;-68
2022/09/16 11:07:43;;;;;;;;;;;;;;;-142.75;100.00;76135.28;5014142;28;19941;-68
2022/09/16 11:10:34;;;;;;;;;;;;;;;-142.75;100.00;76123.47;5013086;28;19920;-68
2022/09/16 11:12:59;;;;;;;;;;;;;;;-142.75;100.00;76056.56;5014347;28;20023;-68
2022/09/16 11:15:36;;;;;;;;;;;;;;;-142.75;100.00;76042.78;5014192;28;19976;-68
2022/09/16 11:18:02;;;;;;;;;;;;;;;-142.75;100.00;76034.91;5012041;28;19913;-69
2022/09/16 11:20:36;;;;;;;;;;;;;;;-142.75;100.00;75983.72;5013863;28;19972;-68
2022/09/16 11:23:10;;;;;;;;;;;;;;;-142.75;100.00;76011.28;5014047;28;19917;-68
2022/09/16 11:25:36;;;;;;;;;;;;;;;-142.75;100.00;76048.69;5014049;28;19913;-68
2022/09/16 11:28:20;;;;;;;;;;;;;;;-142.75;100.00;76109.69;5013755;28;20375;-68
2022/09/16 11:30:54;;;;;;;;;;;;;;;-142.75;100.00;76107.72;5014048;28;19914;-68
2022/09/16 11:33:24;;;;;;;;;;;;;;;-142.75;100.00;76056.56;5013241;28;19924;-69
2022/09/16 11:36:02;;;;;;;;;;;;;;;-142.75;100.00;76048.69;5014107;28;19918;-69
2022/09/16 11:38:39;;;;;;;;;;;;;;;-142.75;100.00;76235.66;5012281;28;20457;-69
2022/09/16 11:41:24;;;;;;;;;;;;;;;-142.75;100.00;76347.84;5014179;28;20027;-69
2022/09/16 11:44:08;;;;;;;;;;;;;;;-142.75;100.00;76452.19;5009912;28;20338;-69
2022/09/16 11:46:36;;;;;;;;;;;;;;;-142.75;100.00;76456.13;5013093;28;19926;-68
2022/09/16 11:49:01;;;;;;;;;;;;;;;-142.75;100.00;76464.00;5013571;28;19929;-69
2022/09/16 11:51:36;;;;;;;;;;;;;;;-142.75;100.00;76414.78;5013937;28;19959;-68
2022/09/16 11:54:01;;;;;;;;;;;;;;;-142.75;100.00;76460.06;5012671;28;19920;-68
2022/09/16 11:56:26;;;;;;;;;;;;;;;-142.75;100.00;76538.78;5013648;28;20004;-68
2022/09/16 11:58:54;;;;;;;;;;;;;;;-142.75;100.00;76603.75;5011878;28;20004;-69
2022/09/16 12:01:31;;;;;;;;;;;;;;;-142.75;100.00;76631.31;5012352;28;19922;-68
2022/09/16 12:04:00;;;;;;;;;;;;;;;-142.75;100.00;76615.56;5011004;28;19913;-67
2022/09/16 12:06:29;;;;;;;;;;;;;;;-142.75;100.00;76613.59;5012922;28;19917;-68
2022/09/16 12:09:04;;;;;;;;;;;;;;;-142.75;100.00;76631.31;5010842;28;19921;-67
2022/09/16 12:11:31;;;;;;;;;;;;;;;-142.75;100.00;76633.28;5010819;28;20297;-67
2022/09/16 12:14:12;;;;;;;;;;;;;;;-142.75;100.00;76637.22;5008944;28;19917;-67
2022/09/16 12:16:46;;;;;;;;;;;;;;;-142.75;100.00;76637.22;5008857;28;19957;-68
2022/09/16 12:19:28;;;;;;;;;;;;;;;-142.75;100.00;76617.53;5012787;28;19929;-68
2022/09/16 12:21:56;;;;;;;;;;;;;;;-142.75;100.00;76580.13;5013012;28;19926;-67
2022/09/16 12:24:33;;;;;;;;;;;;;;;-142.75;100.00;76582.09;5010821;28;19936;-67
2022/09/16 12:27:08;;;;;;;;;;;;;;;-142.75;100.00;76538.78;5004648;28;19960;-68